createdAt,value
2023-05-13T00:00:39.255Z,86
2023-05-13T00:10:39.206Z,86
2023-05-13T00:20:39.205Z,86
2023-05-13T00:30:39.205Z,87
2023-05-13T00:40:39.184Z,87
2023-05-13T00:50:39.159Z,87
2023-05-13T01:00:39.165Z,87
2023-05-13T01:10:39.122Z,87
2023-05-13T01:20:39.101Z,87
2023-05-13T01:30:39.145Z,87
2023-05-13T01:40:39.505Z,87
2023-05-13T01:50:39.074Z,87
2023-05-13T02:00:39.055Z,87
2023-05-13T02:10:39.094Z,87
2023-05-13T02:20:39.036Z,87
2023-05-13T02:30:39.056Z,87
2023-05-13T02:40:39.066Z,88
2023-05-13T02:50:40.994Z,88
2023-05-13T03:00:39.027Z,88
2023-05-13T03:10:39.045Z,88
2023-05-13T03:20:38.971Z,88
2023-05-13T03:30:38.984Z,88
2023-05-13T03:40:40.914Z,88
2023-05-13T03:50:38.944Z,88
2023-05-13T04:00:39.388Z,88
2023-05-13T04:10:38.958Z,88
2023-05-13T04:20:38.894Z,88
2023-05-13T04:30:38.949Z,88
2023-05-13T04:40:38.929Z,88
2023-05-13T04:50:38.875Z,88
2023-05-13T05:00:38.890Z,88
2023-05-13T05:10:38.827Z,89
2023-05-13T05:20:38.827Z,89
2023-05-13T05:30:38.856Z,89
2023-05-13T05:40:39.277Z,89
2023-05-13T05:50:38.803Z,89
2023-05-13T06:00:39.208Z,89
2023-05-13T06:10:38.832Z,89
2023-05-13T06:20:39.174Z,89
2023-05-13T06:30:38.793Z,89
2023-05-13T06:40:38.786Z,89
2023-05-13T06:50:38.739Z,89
2023-05-13T07:00:38.799Z,89
2023-05-13T07:10:38.727Z,89
2023-05-13T07:20:38.677Z,89
2023-05-13T07:30:38.754Z,90
2023-05-13T07:40:38.724Z,90
2023-05-13T07:50:38.646Z,90
2023-05-13T08:00:38.674Z,91
2023-05-13T08:10:38.674Z,89
2023-05-13T08:20:38.622Z,90
2023-05-13T08:30:38.660Z,89
2023-05-13T08:40:38.614Z,88
2023-05-13T08:50:38.578Z,88
2023-05-13T09:00:38.982Z,88
2023-05-13T09:10:40.488Z,87
2023-05-13T09:20:38.585Z,89
2023-05-13T09:30:38.969Z,89
2023-05-13T09:40:38.533Z,88
2023-05-13T09:50:38.489Z,86
2023-05-13T10:00:39.386Z,84
2023-05-13T10:10:38.479Z,79
2023-05-13T10:20:38.409Z,76
2023-05-13T10:30:38.438Z,72
2023-05-13T10:40:38.430Z,69
2023-05-13T10:50:38.378Z,67
2023-05-13T11:00:38.382Z,65
2023-05-13T11:10:38.409Z,64
2023-05-13T11:20:51.526Z,64
2023-05-13T11:30:38.354Z,64
2023-05-13T11:40:38.401Z,64
2023-05-13T11:50:38.266Z,64
2023-05-13T12:00:38.326Z,64
2023-05-13T12:10:38.260Z,64
2023-05-13T12:20:38.268Z,65
2023-05-13T12:30:38.259Z,65
2023-05-13T12:40:38.216Z,66
2023-05-13T12:50:38.198Z,66
2023-05-13T13:00:38.289Z,66
2023-05-13T13:10:38.218Z,66
2023-05-13T13:20:38.555Z,67
2023-05-13T13:30:38.176Z,67
2023-05-13T13:40:38.594Z,67
2023-05-13T13:50:38.098Z,68
2023-05-13T14:00:38.107Z,70
2023-05-13T14:10:38.077Z,71
2023-05-13T14:20:38.048Z,73
2023-05-13T14:30:38.064Z,74
2023-05-13T14:40:38.042Z,76
2023-05-13T14:50:38.980Z,78
2023-05-13T15:00:38.063Z,79
2023-05-13T15:10:38.413Z,80
2023-05-13T15:20:37.955Z,81
2023-05-13T15:30:38.029Z,81
2023-05-13T15:40:37.966Z,81
2023-05-13T15:50:37.901Z,81
2023-05-13T16:00:37.951Z,81
2023-05-13T16:10:37.935Z,80
2023-05-13T16:20:37.867Z,80
2023-05-13T16:30:37.913Z,79
2023-05-13T16:40:38.129Z,78
2023-05-13T16:50:37.826Z,78
2023-05-13T17:00:37.853Z,78
2023-05-13T17:10:37.851Z,78
2023-05-13T17:20:37.790Z,79
2023-05-13T17:30:37.817Z,79
2023-05-13T17:40:37.778Z,79
2023-05-13T17:50:37.746Z,79
2023-05-13T18:00:37.798Z,79
2023-05-13T18:10:38.160Z,79
2023-05-13T18:20:37.707Z,80
2023-05-13T18:30:38.170Z,81
2023-05-13T18:40:37.706Z,81
2023-05-13T18:50:37.674Z,82
2023-05-13T19:00:37.684Z,82
2023-05-13T19:10:40.173Z,81
2023-05-13T19:20:37.596Z,81
2023-05-13T19:30:37.661Z,81
2023-05-13T19:40:37.653Z,82
2023-05-13T19:50:37.587Z,82
2023-05-13T20:00:37.540Z,82
2023-05-13T20:10:37.626Z,82
2023-05-13T20:20:37.955Z,82
2023-05-13T20:30:37.580Z,82
2023-05-13T20:40:37.570Z,83
2023-05-13T20:50:37.553Z,83
2023-05-13T21:00:37.518Z,83
2023-05-13T21:10:37.548Z,83
2023-05-13T21:20:37.896Z,84
2023-05-13T21:30:37.524Z,84
2023-05-13T21:40:37.474Z,85
2023-05-13T21:50:37.440Z,85
2023-05-13T22:00:37.491Z,85
2023-05-13T22:10:37.459Z,85
2023-05-13T22:20:37.829Z,85
2023-05-13T22:30:37.419Z,85
2023-05-13T22:40:37.401Z,85
2023-05-13T22:50:37.382Z,86
2023-05-13T23:00:37.391Z,86
2023-05-13T23:10:37.796Z,86
2023-05-13T23:20:37.323Z,86
2023-05-13T23:30:37.369Z,86
2023-05-13T23:40:37.344Z,85
2023-05-13T23:50:37.315Z,85
